Time;durP1;ratioP1;P1;durP2;ratioP2;P2;SDS_P1;SDS_P2;PMS_P1;PMS_P2;Temp;Humidity;BMP_temperature;BMP_pressure;BME280_temperature;BME280_humidity;BME280_pressure;Samples;Min_cycle;Max_cycle;Signal;HPM_P1;HPM_P2
2022/01/25 00:08:41;;;;;;;19.67;10.48;;;;;;;-0.64;89.17;97984.66;2071117;28;20205;-59
2022/01/25 00:26:17;;;;;;;22.35;11.45;;;;;;;-1.23;88.53;97993.31;2072118;28;20198;-59
2022/01/25 00:28:42;;;;;;;22.60;12.57;;;;;;;-1.32;88.17;97980.44;2071800;28;20197;-59
2022/01/25 00:31:00;;;;;;;25.95;13.45;;;;;;;-1.48;87.45;97985.56;2072085;28;20224;-59
2022/01/25 00:32:02;;;;;;;27.38;11.50;;;;;;;-1.68;87.92;97976.97;2072263;28;20208;-59
2022/01/25 00:33:05;;;;;;;19.05;10.98;;;;;;;-1.64;88.44;97991.53;2071119;28;20589;-59
2022/01/25 00:34:07;;;;;;;21.77;11.95;;;;;;;-1.72;87.66;97968.41;2072105;28;20202;-59
2022/01/25 00:35:08;;;;;;;22.60;12.90;;;;;;;-1.71;87.49;97985.50;2071560;28;20257;-59
2022/01/25 00:36:15;;;;;;;20.90;11.13;;;;;;;-1.60;86.54;97978.69;2072232;28;20197;-59
2022/01/25 00:37:16;;;;;;;24.13;11.00;;;;;;;-1.83;86.43;97981.22;2070379;28;20194;-59
2022/01/25 00:38:18;;;;;;;24.52;11.25;;;;;;;-1.96;86.69;97983.75;2072253;28;20197;-59
2022/01/25 00:39:20;;;;;;;24.65;11.23;;;;;;;-1.91;86.38;97975.19;2071820;28;20688;-59
2022/01/25 00:40:21;;;;;;;18.20;10.63;;;;;;;-1.92;86.72;97978.63;2071770;28;20201;-59
2022/01/25 00:41:24;;;;;;;18.98;9.85;;;;;;;-1.94;87.38;97980.34;2072250;28;20212;-59
2022/01/25 00:42:26;;;;;;;20.52;10.98;;;;;;;-2.00;86.92;97967.47;2072555;28;20204;-58
2022/01/25 00:43:27;;;;;;;28.30;10.55;;;;;;;-1.83;86.78;97986.34;2073661;28;20213;-59
2022/01/25 00:44:35;;;;;;;25.63;13.07;;;;;;;-1.84;86.85;97989.78;2073315;28;20197;-59
2022/01/25 00:45:36;;;;;;;18.45;10.90;;;;;;;-2.03;87.01;97952.91;2072401;28;20198;-59
2022/01/25 00:46:38;;;;;;;22.75;11.45;;;;;;;-1.86;87.36;97983.78;2073795;28;20206;-58
2022/01/25 00:47:41;;;;;;;20.92;11.40;;;;;;;-1.91;87.88;97985.47;2073647;28;20201;-59
2022/01/25 00:48:47;;;;;;;25.35;11.85;;;;;;;-1.90;87.81;97988.88;2072332;28;20212;-58
2022/01/25 00:49:52;;;;;;;23.83;11.88;;;;;;;-1.86;87.98;97982.91;2073264;28;20232;-59
2022/01/25 00:51:03;;;;;;;23.27;12.20;;;;;;;-1.88;87.70;97988.06;2073618;28;20205;-60
2022/01/25 00:54:03;;;;;;;21.65;10.68;;;;;;;-1.96;88.26;97988.88;2055907;28;20678;-59
2022/01/25 00:55:05;;;;;;;25.52;12.30;;;;;;;-1.86;88.00;97988.03;2072944;28;20225;-59
2022/01/25 00:56:06;;;;;;;18.45;10.48;;;;;;;-1.92;88.40;97990.59;2073391;28;20246;-59
2022/01/25 00:57:08;;;;;;;18.60;10.48;;;;;;;-1.93;88.39;97988.91;2073077;28;20194;-59
2022/01/25 00:58:09;;;;;;;26.23;12.55;;;;;;;-2.00;88.58;97993.13;2073683;28;20195;-59
2022/01/25 00:59:14;;;;;;;26.52;12.55;;;;;;;-2.04;89.00;97981.16;2073409;28;20233;-59
2022/01/25 01:00:15;;;;;;;20.33;10.63;;;;;;;-1.96;88.55;97986.31;2073185;28;20797;-58
2022/01/25 01:01:19;;;;;;;20.38;12.38;;;;;;;-2.02;89.34;97984.56;2071766;28;20209;-59
2022/01/25 01:02:21;;;;;;;25.33;12.98;;;;;;;-2.00;89.81;97994.03;2073475;28;20259;-59
2022/01/25 01:03:24;;;;;;;29.80;11.60;;;;;;;-1.96;89.73;97981.19;2073698;28;20599;-59
2022/01/25 01:04:27;;;;;;;21.08;11.98;;;;;;;-2.01;90.38;97982.03;2073229;28;20315;-59
2022/01/25 01:05:28;;;;;;;20.83;12.43;;;;;;;-1.97;89.90;97987.19;2072468;28;20198;-59
2022/01/25 01:06:50;;;;;;;25.25;13.00;;;;;;;-2.00;89.93;97985.44;2073627;28;20750;-59
2022/01/25 01:07:51;;;;;;;24.73;11.02;;;;;;;-2.17;89.23;97943.47;2072973;28;20228;-59
2022/01/25 01:08:54;;;;;;;23.20;11.55;;;;;;;-2.00;89.42;97977.72;2072461;28;20205;-59
2022/01/25 01:09:58;;;;;;;21.23;11.20;;;;;;;-1.94;88.97;97982.03;2073192;28;20241;-59
2022/01/25 01:11:03;;;;;;;23.00;11.85;;;;;;;-2.16;88.99;97938.31;2072567;28;20738;-59
2022/01/25 01:12:11;;;;;;;23.38;11.20;;;;;;;-1.91;88.49;97982.06;2073563;28;20201;-59
2022/01/25 01:14:38;;;;;;;30.10;12.32;;;;;;;-1.85;89.31;97982.91;2072203;28;20205;-59
2022/01/25 01:15:51;;;;;;;21.85;11.57;;;;;;;-1.78;88.49;97986.38;2072903;28;20663;-59
2022/01/25 01:17:34;;;;;;;25.85;12.07;;;;;;;-1.85;89.23;97982.91;2073156;28;20656;-58
2022/01/25 01:34:18;;;;;;;21.92;10.27;;;;;;;-1.88;88.41;97995.78;2073382;28;20204;-59
2022/01/25 01:37:04;;;;;;;16.52;10.32;;;;;;;-1.89;88.71;97993.19;2073295;28;20551;-59
2022/01/25 01:40:43;;;;;;;22.38;10.30;;;;;;;-1.91;88.50;97993.19;2072860;28;20680;-59
2022/01/25 01:44:03;;;;;;;16.17;10.20;;;;;;;-2.02;88.81;97989.72;2073357;28;20215;-59
2022/01/25 01:45:26;;;;;;;18.38;10.20;;;;;;;-2.02;88.99;97990.59;2072904;28;20306;-59
2022/01/25 01:46:56;;;;;;;16.95;10.50;;;;;;;-1.93;88.85;97991.47;2074823;28;20195;-59
2022/01/25 01:48:03;;;;;;;21.85;10.90;;;;;;;-2.07;88.60;97986.28;2073500;28;20685;-59
2022/01/25 01:49:07;;;;;;;21.45;11.10;;;;;;;-2.13;88.46;97987.13;2073035;28;20209;-59
2022/01/25 01:50:13;;;;;;;20.70;10.10;;;;;;;-2.15;88.93;97993.13;2072811;28;20587;-59
2022/01/25 01:51:21;;;;;;;23.13;11.82;;;;;;;-2.06;88.76;97998.25;2072311;28;20216;-59
2022/01/25 01:52:22;;;;;;;17.65;10.30;;;;;;;-2.03;88.63;97988.88;2072856;28;20192;-59
2022/01/25 01:53:24;;;;;;;16.83;9.77;;;;;;;-2.08;88.92;97999.97;2072012;28;20197;-59
2022/01/25 01:54:25;;;;;;;19.58;10.88;;;;;;;-2.15;89.42;97993.97;2071722;28;20556;-59
2022/01/25 01:55:27;;;;;;;21.17;10.70;;;;;;;-2.33;89.14;97979.34;2073098;28;20226;-59
2022/01/25 01:56:29;;;;;;;15.38;9.13;;;;;;;-2.66;89.44;97939.84;2073036;28;20223;-59
2022/01/25 01:57:30;;;;;;;22.58;11.60;;;;;;;-2.30;89.03;97983.63;2073177;28;20207;-59
2022/01/25 01:58:35;;;;;;;20.00;10.52;;;;;;;-2.28;89.08;97998.16;2072852;28;20708;-59
2022/01/25 01:59:37;;;;;;;22.60;11.30;;;;;;;-2.30;88.62;97987.03;2087905;28;20238;-59
2022/01/25 02:00:45;;;;;;;16.08;10.32;;;;;;;-2.35;88.90;97988.75;2088800;28;20196;-59
2022/01/25 02:01:47;;;;;;;25.20;11.02;;;;;;;-2.27;88.89;98004.19;2072482;28;20699;-59
2022/01/25 02:02:49;;;;;;;18.17;9.88;;;;;;;-2.29;88.74;98004.19;2073221;28;20701;-59
2022/01/25 02:03:52;;;;;;;17.15;9.55;;;;;;;-2.44;89.10;97983.56;2073235;28;20211;-59
2022/01/25 02:04:54;;;;;;;20.10;10.48;;;;;;;-2.36;88.82;97996.44;2072724;28;20232;-59
2022/01/25 02:05:55;;;;;;;23.77;11.15;;;;;;;-2.32;88.66;97996.44;2072966;28;20237;-59
2022/01/25 02:06:57;;;;;;;18.80;11.70;;;;;;;-2.44;88.54;97999.81;2073135;28;20207;-59
2022/01/25 02:08:00;;;;;;;21.05;10.90;;;;;;;-2.50;88.91;97996.38;2076400;28;20203;-59
2022/01/25 02:09:04;;;;;;;20.33;11.63;;;;;;;-2.56;89.63;97994.63;2074224;28;20211;-59
2022/01/25 02:10:06;;;;;;;20.58;11.77;;;;;;;-2.76;89.59;97950.03;2072568;28;20319;-59
2022/01/25 02:11:08;;;;;;;20.83;11.25;;;;;;;-2.50;89.35;97992.09;2073151;28;20199;-59
2022/01/25 02:12:10;;;;;;;19.48;11.20;;;;;;;-2.54;89.85;97995.50;2073095;28;20199;-59
2022/01/25 02:13:12;;;;;;;24.15;11.00;;;;;;;-2.50;90.04;97994.66;2073118;28;20203;-59
2022/01/25 02:14:15;;;;;;;18.35;11.38;;;;;;;-2.46;89.21;97982.69;2072575;28;20203;-59
2022/01/25 02:15:18;;;;;;;22.60;12.52;;;;;;;-2.45;89.39;97990.41;2072720;28;20228;-59
2022/01/25 02:17:58;;;;;;;20.73;11.05;;;;;;;-2.45;88.54;97992.97;2072967;28;20208;-59
2022/01/25 02:23:18;;;;;;;18.40;9.50;;;;;;;-2.58;88.06;97984.34;2072934;28;20207;-59
2022/01/25 02:24:20;;;;;;;22.42;9.70;;;;;;;-2.65;87.69;97981.75;2071267;28;20709;-59
2022/01/25 02:25:22;;;;;;;20.58;8.95;;;;;;;-2.66;87.51;97988.59;2072916;28;20204;-59
2022/01/25 02:26:24;;;;;;;17.40;10.02;;;;;;;-2.70;88.09;97984.28;2072921;28;20207;-59
2022/01/25 02:27:25;;;;;;;17.83;9.88;;;;;;;-2.72;88.58;97986.00;2072978;28;20203;-59
2022/01/25 02:28:31;;;;;;;18.25;9.35;;;;;;;-2.73;89.60;97976.56;2072938;28;20210;-59
2022/01/25 02:29:33;;;;;;;16.63;9.98;;;;;;;-2.55;89.63;97982.66;2071553;28;20816;-59
2022/01/25 02:30:35;;;;;;;19.83;11.02;;;;;;;-2.60;89.61;97977.50;2072899;28;20748;-59
2022/01/25 02:31:36;;;;;;;21.95;11.45;;;;;;;-2.56;89.28;97980.94;2072874;28;20192;-59
2022/01/25 02:32:38;;;;;;;15.85;10.65;;;;;;;-2.58;89.78;97981.78;2072852;28;20637;-60
2022/01/25 02:33:40;;;;;;;19.20;9.98;;;;;;;-2.60;89.23;97980.91;2071064;28;20197;-59
2022/01/25 02:34:42;;;;;;;23.65;10.82;;;;;;;-2.58;89.43;97984.34;2072442;28;20236;-59
2022/01/25 02:35:44;;;;;;;21.30;10.70;;;;;;;-2.49;89.17;97988.69;2072789;28;20229;-59
2022/01/25 02:36:45;;;;;;;16.65;10.80;;;;;;;-2.51;89.08;97992.06;2072933;28;20691;-59
2022/01/25 02:37:47;;;;;;;22.92;12.65;;;;;;;-2.47;88.19;97988.66;2072908;28;20204;-59
2022/01/25 02:38:48;;;;;;;21.02;10.65;;;;;;;-2.54;88.33;97979.25;2071865;28;20226;-59
2022/01/25 02:39:50;;;;;;;19.17;11.32;;;;;;;-2.49;88.00;97990.38;2070379;28;20232;-59
2022/01/25 02:40:52;;;;;;;22.60;11.02;;;;;;;-2.60;88.04;97991.19;2072800;28;20211;-59
2022/01/25 02:41:53;;;;;;;18.45;10.48;;;;;;;-2.58;88.16;97992.03;2072480;28;20206;-59
2022/01/25 02:42:56;;;;;;;21.33;11.65;;;;;;;-2.70;88.52;97970.63;2072743;28;20683;-59
2022/01/25 02:43:58;;;;;;;19.00;10.95;;;;;;;-2.60;88.64;97991.19;2071957;28;20195;-59
2022/01/25 02:45:00;;;;;;;17.63;10.25;;;;;;;-2.60;88.48;97988.63;2072315;28;20232;-59
2022/01/25 02:48:30;;;;;;;23.40;10.25;;;;;;;-2.53;88.66;97981.78;2072557;28;20199;-59
2022/01/25 02:49:35;;;;;;;21.10;9.70;;;;;;;-2.40;87.88;97981.00;2072254;28;20627;-59
2022/01/25 02:50:36;;;;;;;21.38;9.55;;;;;;;-2.53;88.33;97978.38;2072693;28;20203;-59
2022/01/25 02:51:43;;;;;;;21.90;10.30;;;;;;;-2.54;88.26;97984.38;2072784;28;20212;-59
2022/01/25 02:52:44;;;;;;;20.40;11.30;;;;;;;-2.67;89.06;97971.47;2071286;28;20202;-59
2022/01/25 02:53:46;;;;;;;21.80;11.65;;;;;;;-2.53;88.61;97981.78;2072719;28;20207;-59
2022/01/25 02:54:48;;;;;;;22.85;10.50;;;;;;;-2.62;88.91;97981.78;2072182;28;20222;-59
2022/01/25 02:55:50;;;;;;;20.88;10.90;;;;;;;-2.67;88.85;97970.63;2072276;28;20207;-59
2022/01/25 02:56:51;;;;;;;19.00;10.95;;;;;;;-2.63;88.95;97980.91;2071035;28;20212;-59
2022/01/25 02:57:52;;;;;;;20.52;10.65;;;;;;;-2.67;89.19;97975.75;2072611;28;20209;-59
2022/01/25 02:58:55;;;;;;;21.13;10.77;;;;;;;-2.70;89.22;97963.78;2072040;28;20194;-60
2022/01/25 03:00:08;;;;;;;22.20;10.65;;;;;;;-2.72;89.46;97975.72;2070378;28;20224;-59
2022/01/25 03:01:10;;;;;;;22.50;11.57;;;;;;;-2.63;89.20;97970.66;2072638;28;20655;-59
2022/01/25 03:02:13;;;;;;;17.40;10.88;;;;;;;-2.67;89.28;97968.03;2072720;28;20210;-59
2022/01/25 03:03:15;;;;;;;20.13;10.93;;;;;;;-2.76;89.41;97978.25;2072759;28;20279;-59
2022/01/25 03:04:19;;;;;;;17.90;10.05;;;;;;;-2.71;89.41;97971.44;2072140;28;20648;-60
2022/01/25 03:05:21;;;;;;;18.38;11.38;;;;;;;-2.66;89.42;97967.22;2071838;28;20198;-59
2022/01/25 03:06:23;;;;;;;17.77;10.55;;;;;;;-2.59;88.72;97967.25;2072417;28;20721;-60
2022/01/25 03:07:25;;;;;;;24.23;10.85;;;;;;;-2.62;88.63;97967.22;2072677;28;20556;-60
2022/01/25 03:08:26;;;;;;;22.75;11.82;;;;;;;-2.55;88.91;97974.94;2072606;28;20191;-60
2022/01/25 03:09:28;;;;;;;21.40;9.68;;;;;;;-2.65;88.81;97956.09;2072231;28;20219;-60
2022/01/25 03:10:39;;;;;;;20.50;11.02;;;;;;;-2.64;89.53;97968.94;2072553;28;20192;-60
2022/01/25 03:11:44;;;;;;;26.75;10.80;;;;;;;-2.66;89.26;97965.50;2072092;28;20205;-60
2022/01/25 03:12:51;;;;;;;25.15;12.07;;;;;;;-3.31;89.55;97858.28;2072626;28;20706;-59
2022/01/25 03:13:56;;;;;;;20.00;11.88;;;;;;;-2.63;89.86;97970.66;2072488;28;20200;-59
2022/01/25 03:15:23;;;;;;;19.88;10.38;;;;;;;-2.50;89.02;97973.28;2072193;28;20243;-60
2022/01/25 03:16:32;;;;;;;20.23;10.65;;;;;;;-2.60;88.72;97970.66;2070764;28;20196;-60
2022/01/25 03:17:35;;;;;;;18.92;10.02;;;;;;;-2.61;88.83;97974.09;2071736;28;20225;-59
2022/01/25 03:18:41;;;;;;;22.15;10.95;;;;;;;-2.64;88.96;97968.94;2072577;28;20346;-60
2022/01/25 03:19:48;;;;;;;22.20;11.75;;;;;;;-2.61;88.94;97979.22;2072163;28;20277;-60
2022/01/25 03:20:59;;;;;;;22.63;12.13;;;;;;;-2.59;88.66;97974.06;2072540;28;20216;-60
2022/01/25 03:23:31;;;;;;;24.63;11.23;;;;;;;-2.76;89.10;97966.31;2071287;28;20198;-60
2022/01/25 03:24:33;;;;;;;18.85;10.20;;;;;;;-2.73;88.65;97965.47;2071901;28;20235;-60
2022/01/25 03:25:34;;;;;;;17.48;10.18;;;;;;;-2.75;88.89;97965.44;2072449;28;20207;-60
2022/01/25 03:26:35;;;;;;;17.65;10.57;;;;;;;-2.71;88.65;97951.78;2072473;28;20223;-60
2022/01/25 03:27:37;;;;;;;18.65;10.88;;;;;;;-2.73;88.54;97966.31;2072527;28;20206;-60
2022/01/25 03:28:38;;;;;;;20.25;10.73;;;;;;;-2.82;89.06;97963.72;2072315;28;20200;-60
2022/01/25 03:29:40;;;;;;;18.95;9.60;;;;;;;-2.74;88.62;97971.41;2071363;28;20613;-60
2022/01/25 03:30:41;;;;;;;22.60;10.85;;;;;;;-2.94;88.74;97943.97;2071747;28;20371;-60
2022/01/25 03:31:43;;;;;;;20.08;10.82;;;;;;;-2.88;88.39;97958.50;2072627;28;20866;-60
2022/01/25 03:32:45;;;;;;;22.25;11.18;;;;;;;-2.86;88.86;97961.94;2072581;28;20208;-60
2022/01/25 03:33:46;;;;;;;18.90;10.60;;;;;;;-2.93;88.54;97957.66;2072427;28;20204;-60
2022/01/25 03:34:48;;;;;;;15.02;9.80;;;;;;;-2.82;88.26;97972.25;2072067;28;20734;-60
2022/01/25 03:35:49;;;;;;;19.20;9.82;;;;;;;-2.76;88.58;97978.25;2072521;28;20226;-60
2022/01/25 03:36:51;;;;;;;24.75;11.57;;;;;;;-2.78;88.54;97973.97;2072464;28;20206;-60
2022/01/25 03:37:52;;;;;;;18.67;10.15;;;;;;;-2.89;88.02;97936.31;2070834;28;20199;-60
2022/01/25 03:38:54;;;;;;;15.60;8.98;;;;;;;-2.77;88.47;97977.41;2072503;28;20214;-61
2022/01/25 03:39:55;;;;;;;15.98;9.75;;;;;;;-2.96;88.39;97955.06;2072042;28;20601;-60
2022/01/25 03:40:57;;;;;;;19.80;10.88;;;;;;;-2.77;88.66;97972.25;2072136;28;20216;-60
2022/01/25 03:41:58;;;;;;;18.42;10.07;;;;;;;-3.22;88.94;97907.88;2072475;28;20681;-60
2022/01/25 03:43:03;;;;;;;20.67;10.85;;;;;;;-2.92;89.03;97964.47;2072474;28;20199;-60
2022/01/25 03:44:04;;;;;;;19.85;10.15;;;;;;;-2.81;88.38;97967.97;2071583;28;20195;-60
2022/01/25 03:45:08;;;;;;;22.40;10.00;;;;;;;-2.89;88.36;97965.34;2071350;28;20575;-61
2022/01/25 03:46:19;;;;;;;20.35;10.65;;;;;;;-2.86;89.02;97962.81;2070375;28;20207;-60
2022/01/25 03:47:30;;;;;;;20.05;10.02;;;;;;;-2.85;89.17;97969.66;2072459;28;20563;-61
2022/01/25 03:49:52;;;;;;;17.08;10.18;;;;;;;-2.88;89.54;97972.22;2071454;28;20204;-60
2022/01/25 03:50:54;;;;;;;19.35;9.35;;;;;;;-2.89;88.87;97951.69;2072022;28;20246;-61
2022/01/25 03:51:55;;;;;;;20.27;11.65;;;;;;;-2.86;88.89;97961.94;2074258;28;20199;-61
2022/01/25 03:52:57;;;;;;;17.30;11.00;;;;;;;-3.30;88.54;97901.84;2075868;28;20215;-60
2022/01/25 03:53:58;;;;;;;17.80;9.90;;;;;;;-3.09;88.60;97949.00;2072368;28;20215;-60
2022/01/25 03:55:00;;;;;;;18.85;10.90;;;;;;;-3.04;88.85;97957.56;2071793;28;20231;-61
2022/01/25 03:56:01;;;;;;;18.20;9.70;;;;;;;-3.02;88.55;97943.03;2072285;28;20687;-61
2022/01/25 03:57:03;;;;;;;19.20;10.60;;;;;;;-3.44;88.60;97881.28;2072295;28;20214;-61
2022/01/25 03:58:06;;;;;;;18.13;10.10;;;;;;;-2.94;88.79;97958.47;2072282;28;20211;-61
2022/01/25 03:59:07;;;;;;;19.30;9.55;;;;;;;-2.84;88.85;97957.72;2072472;28;20596;-60
2022/01/25 04:00:10;;;;;;;22.60;11.05;;;;;;;-2.73;88.76;97957.75;2071455;28;20756;-60
2022/01/25 04:01:12;;;;;;;16.88;9.55;;;;;;;-2.85;88.71;97950.84;2072376;28;20219;-61
2022/01/25 04:02:14;;;;;;;19.25;10.10;;;;;;;-2.93;88.64;97945.69;2072437;28;20678;-61
2022/01/25 04:03:29;;;;;;;19.65;10.10;;;;;;;-3.00;88.86;97955.06;2072380;28;20202;-60
2022/01/25 04:04:31;;;;;;;19.52;10.82;;;;;;;-2.85;88.45;97948.28;2071151;28;20206;-61
2022/01/25 04:05:47;;;;;;;16.88;10.20;;;;;;;-3.01;88.21;97953.31;2072034;28;20195;-60
2022/01/25 04:06:51;;;;;;;20.85;9.57;;;;;;;-3.06;88.46;97937.06;2071159;28;20209;-61
2022/01/25 04:07:53;;;;;;;20.42;10.05;;;;;;;-3.02;88.61;97953.31;2071386;28;20820;-61
2022/01/25 04:09:01;;;;;;;20.00;10.20;;;;;;;-3.00;88.62;97960.19;2071592;28;20199;-61
2022/01/25 04:10:03;;;;;;;20.13;10.75;;;;;;;-2.93;87.96;97957.66;2069745;28;20666;-61
2022/01/25 04:11:05;;;;;;;20.45;9.60;;;;;;;-3.01;87.84;97952.47;2070946;28;20242;-61
2022/01/25 04:12:07;;;;;;;20.00;10.07;;;;;;;-2.85;87.28;97961.97;2072209;28;20207;-61
2022/01/25 04:13:10;;;;;;;21.48;12.70;;;;;;;-2.84;87.43;97953.44;2072288;28;20202;-61
2022/01/25 04:14:11;;;;;;;18.92;10.93;;;;;;;-3.01;87.55;97955.88;2072320;28;20200;-61
2022/01/25 04:15:13;;;;;;;22.75;12.68;;;;;;;-3.01;87.19;97953.31;2071947;28;20564;-61
2022/01/25 04:16:20;;;;;;;28.58;11.85;;;;;;;-3.00;87.31;97952.47;2070962;28;20225;-62
2022/01/25 04:17:22;;;;;;;20.20;11.48;;;;;;;-3.20;88.07;97954.88;2072253;28;20213;-63
2022/01/25 04:19:09;;;;;;;27.83;12.35;;;;;;;-3.88;88.01;97848.50;2073182;28;20215;-62
2022/01/25 04:20:09;;;;;;;14.73;9.40;;;;;;;-3.26;88.04;97957.41;2067618;28;20214;-62
2022/01/25 04:21:24;;;;;;;27.40;11.57;;;;;;;-3.49;88.46;97936.75;2073331;28;20250;-61
2022/01/25 04:25:15;;;;;;;24.70;11.27;;;;;;;-3.33;88.65;97953.09;2072356;28;20262;-62
2022/01/25 04:26:17;;;;;;;19.98;12.07;;;;;;;-3.45;88.95;97942.72;2072528;28;20196;-59
2022/01/25 04:27:18;;;;;;;26.63;12.90;;;;;;;-3.45;88.56;97952.97;2073820;28;20203;-59
2022/01/25 04:28:20;;;;;;;20.67;11.45;;;;;;;-3.41;88.96;97958.16;2073848;28;20204;-59
2022/01/25 04:29:22;;;;;;;17.40;10.68;;;;;;;-3.49;87.75;97929.06;2073476;28;20196;-59
2022/01/25 04:30:24;;;;;;;18.90;10.55;;;;;;;-3.50;87.98;97947.84;2073985;28;20202;-60
2022/01/25 04:31:26;;;;;;;20.92;11.45;;;;;;;-3.39;87.69;97956.47;2073866;28;20789;-60
2022/01/25 04:32:43;;;;;;;22.38;11.57;;;;;;;-3.46;87.62;97949.56;2077331;28;20200;-59
2022/01/25 04:34:06;;;;;;;17.50;9.73;;;;;;;-3.48;87.33;97946.13;2075731;28;20223;-60
2022/01/25 04:35:25;;;;;;;21.60;10.65;;;;;;;-3.64;87.10;97918.69;2072156;28;20219;-60
2022/01/25 04:49:31;;;;;;;19.42;10.65;;;;;;;-3.41;87.33;97944.47;2071818;28;20224;-59
2022/01/25 04:52:57;;;;;;;21.88;11.13;;;;;;;-3.50;88.16;97916.25;2073363;28;20557;-60
2022/01/25 04:55:31;;;;;;;21.70;10.40;;;;;;;-3.47;88.29;97926.50;2055152;28;20841;-59
2022/01/25 04:56:44;;;;;;;24.80;11.32;;;;;;;-3.34;87.76;97933.44;2072922;28;20198;-59
2022/01/25 04:57:53;;;;;;;19.63;11.18;;;;;;;-3.35;87.51;97935.97;2073576;28;20202;-59
2022/01/25 04:59:04;;;;;;;18.80;10.43;;;;;;;-3.45;87.91;97935.94;2073438;28;20210;-60
2022/01/25 05:00:16;;;;;;;18.90;9.70;;;;;;;-3.50;88.26;97927.34;2071135;28;20219;-59
2022/01/25 05:01:18;;;;;;;20.88;10.73;;;;;;;-3.49;87.89;97934.19;2073221;28;20697;-59
2022/01/25 05:02:34;;;;;;;20.17;11.40;;;;;;;-3.55;88.22;97934.13;2073533;28;20244;-59
2022/01/25 05:03:55;;;;;;;20.02;11.20;;;;;;;-3.59;88.16;97938.38;2073610;28;20244;-59
2022/01/25 05:05:24;;;;;;;21.27;10.60;;;;;;;-3.65;88.07;97942.56;2073174;28;20225;-60
2022/01/25 05:06:27;;;;;;;18.20;10.20;;;;;;;-3.55;87.18;97938.38;2073401;28;20225;-59
2022/01/25 05:07:40;;;;;;;21.38;10.85;;;;;;;-3.51;87.03;97938.41;2073660;28;20209;-60
2022/01/25 05:08:49;;;;;;;30.45;11.80;;;;;;;-3.60;87.52;97940.91;2073652;28;20603;-60
2022/01/25 05:09:52;;;;;;;25.58;10.02;;;;;;;-3.56;87.77;97940.09;2073109;28;20333;-59
2022/01/25 05:11:08;;;;;;;19.80;11.10;;;;;;;-3.78;87.66;97942.47;2073230;28;20211;-60
2022/01/25 05:12:11;;;;;;;20.63;11.35;;;;;;;-3.76;87.77;97924.56;2072983;28;20199;-60
2022/01/25 05:14:33;;;;;;;21.98;11.30;;;;;;;-3.74;87.65;97945.03;2073079;28;20194;-59
2022/01/25 05:18:14;;;;;;;31.58;12.20;;;;;;;-3.91;87.47;97906.50;2071561;28;20213;-60
2022/01/25 05:22:58;;;;;;;19.80;11.00;;;;;;;-3.60;87.19;97946.03;2072793;28;20199;-59
2022/01/25 05:24:00;;;;;;;18.38;10.32;;;;;;;-3.51;87.07;97940.13;2073299;28;20198;-59
2022/01/25 05:25:01;;;;;;;22.80;11.30;;;;;;;-3.54;87.65;97942.69;2072904;28;20233;-59
2022/01/25 05:26:02;;;;;;;18.48;10.85;;;;;;;-3.59;88.27;97943.50;2073541;28;20213;-59
2022/01/25 05:27:05;;;;;;;23.38;10.95;;;;;;;-3.94;88.74;97886.88;2073272;28;20534;-59
2022/01/25 05:28:06;;;;;;;19.63;10.43;;;;;;;-3.62;89.22;97943.47;2073061;28;20240;-59
2022/01/25 05:29:08;;;;;;;24.73;11.65;;;;;;;-3.65;89.14;97945.13;2073331;28;20206;-60
2022/01/25 05:30:10;;;;;;;20.65;11.05;;;;;;;-3.69;89.35;97935.72;2072921;28;20360;-59
2022/01/25 05:31:12;;;;;;;19.20;11.43;;;;;;;-4.13;89.56;97852.56;2079577;28;20197;-59
2022/01/25 05:32:15;;;;;;;18.63;11.65;;;;;;;-3.67;90.47;97939.13;2080702;28;20619;-59
2022/01/25 05:33:17;;;;;;;20.05;10.20;;;;;;;-3.65;90.10;97942.56;2072507;28;20199;-59
2022/01/25 05:34:19;;;;;;;22.35;12.05;;;;;;;-3.63;90.58;97933.19;2072858;28;20280;-59
2022/01/25 05:35:20;;;;;;;18.40;10.20;;;;;;;-3.59;90.52;97937.50;2076790;28;20202;-59
2022/01/25 05:36:22;;;;;;;21.27;11.95;;;;;;;-3.60;90.37;97938.38;2076619;28;20593;-59
2022/01/25 05:37:24;;;;;;;27.65;10.73;;;;;;;-3.61;90.05;97945.19;2073393;28;20884;-60
2022/01/25 05:38:25;;;;;;;15.57;9.85;;;;;;;-3.62;89.71;97937.50;2073157;28;20309;-60
2022/01/25 05:39:31;;;;;;;19.75;11.02;;;;;;;-3.61;89.72;97937.50;2072983;28;20477;-60
2022/01/25 05:40:43;;;;;;;23.52;10.93;;;;;;;-3.66;89.48;97933.19;2072621;28;20560;-60
2022/01/25 05:41:53;;;;;;;18.83;10.77;;;;;;;-3.62;89.01;97942.63;2072992;28;20196;-60
2022/01/25 05:46:31;;;;;;;19.75;9.90;;;;;;;-3.59;88.82;97947.75;2073221;28;20203;-60
2022/01/25 05:47:33;;;;;;;19.02;10.20;;;;;;;-3.66;89.51;97939.16;2072783;28;20277;-60
2022/01/25 05:48:34;;;;;;;23.02;10.73;;;;;;;-3.67;89.61;97947.69;2073149;28;20207;-60
2022/01/25 05:49:37;;;;;;;17.88;9.80;;;;;;;-3.70;89.58;97946.81;2072791;28;20249;-61
2022/01/25 05:50:39;;;;;;;22.08;10.18;;;;;;;-3.68;89.09;97942.56;2072293;28;20198;-60
2022/01/25 05:51:41;;;;;;;18.63;9.80;;;;;;;-3.64;89.07;97946.88;2072834;28;20225;-61
2022/01/25 05:52:43;;;;;;;23.15;10.80;;;;;;;-3.56;89.28;97946.94;2072082;28;20229;-60
2022/01/25 05:53:45;;;;;;;22.50;10.60;;;;;;;-3.64;89.23;97944.31;2070708;28;20591;-60
2022/01/25 05:54:46;;;;;;;21.30;11.13;;;;;;;-3.61;89.35;97944.31;2072522;28;20588;-60
2022/01/25 05:55:48;;;;;;;22.00;10.90;;;;;;;-3.56;89.10;97952.06;2073018;28;20206;-61
2022/01/25 05:56:50;;;;;;;22.70;10.45;;;;;;;-3.41;88.61;97949.59;2073233;28;20825;-60
2022/01/25 05:57:51;;;;;;;21.33;10.15;;;;;;;-3.43;88.19;97947.03;2073053;28;20200;-61
2022/01/25 05:58:53;;;;;;;19.80;9.80;;;;;;;-3.50;88.02;97942.72;2073053;28;20207;-60
2022/01/25 05:59:55;;;;;;;21.00;10.35;;;;;;;-3.52;88.00;97946.97;2072678;28;20229;-60
2022/01/25 06:00:56;;;;;;;18.23;10.60;;;;;;;-4.51;87.78;97771.19;2072964;28;20207;-61
2022/01/25 06:01:58;;;;;;;17.48;10.77;;;;;;;-3.42;87.63;97955.59;2073130;28;20194;-61
2022/01/25 06:03:01;;;;;;;19.63;10.38;;;;;;;-3.54;87.89;97951.22;2073109;28;20203;-60
2022/01/25 06:04:03;;;;;;;19.08;10.18;;;;;;;-3.64;88.16;97947.72;2073188;28;20200;-61
2022/01/25 06:05:05;;;;;;;16.63;11.02;;;;;;;-3.72;87.61;97945.91;2072151;28;20258;-60
2022/01/25 06:06:07;;;;;;;20.63;11.30;;;;;;;-3.75;87.76;97935.66;2072950;28;20235;-60
2022/01/25 06:07:08;;;;;;;18.48;9.90;;;;;;;-3.71;87.67;97947.66;2072983;28;20203;-61
2022/01/25 06:08:13;;;;;;;25.05;10.80;;;;;;;-3.73;87.93;97955.31;2072786;28;20198;-61
2022/01/25 06:09:15;;;;;;;21.00;11.00;;;;;;;-3.75;88.09;97948.47;2073153;28;20716;-60
2022/01/25 06:10:17;;;;;;;21.80;10.60;;;;;;;-3.63;88.26;97959.66;2072922;28;20223;-60
2022/01/25 06:11:20;;;;;;;16.27;8.70;;;;;;;-3.79;87.79;97940.75;2072348;28;20191;-60
2022/01/25 06:12:21;;;;;;;22.65;10.88;;;;;;;-3.73;88.06;97954.44;2072419;28;20901;-60
2022/01/25 06:13:23;;;;;;;19.88;9.40;;;;;;;-3.70;87.87;97955.34;2072981;28;20193;-60
2022/01/25 06:14:24;;;;;;;23.45;10.15;;;;;;;-3.63;87.84;97959.66;2075847;28;20190;-60
2022/01/25 06:15:26;;;;;;;20.48;10.63;;;;;;;-3.71;88.08;97945.09;2075214;28;20202;-61
2022/01/25 06:16:28;;;;;;;21.83;10.15;;;;;;;-3.68;88.14;97950.25;2073072;28;20714;-61
2022/01/25 06:17:30;;;;;;;20.77;10.95;;;;;;;-3.65;88.03;97957.94;2073069;28;20707;-61
2022/01/25 06:18:32;;;;;;;19.88;9.38;;;;;;;-3.71;88.66;97958.72;2073061;28;20196;-61
2022/01/25 06:19:33;;;;;;;18.52;10.15;;;;;;;-3.83;88.30;97938.16;2071376;28;20191;-61
2022/01/25 06:20:35;;;;;;;18.95;9.35;;;;;;;-3.71;88.37;97958.72;2072998;28;20213;-60
2022/01/25 06:21:36;;;;;;;19.30;9.90;;;;;;;-3.75;88.22;97959.56;2072166;28;20213;-61
2022/01/25 06:22:38;;;;;;;20.60;9.60;;;;;;;-3.63;87.92;97961.38;2070851;28;20200;-61
2022/01/25 06:23:40;;;;;;;19.80;11.43;;;;;;;-3.77;88.12;97961.25;2073134;28;20206;-61
2022/01/25 06:24:41;;;;;;;20.60;10.57;;;;;;;-3.81;88.33;97957.78;2072588;28;20236;-61
2022/01/25 06:25:43;;;;;;;18.55;10.63;;;;;;;-4.34;87.83;97852.34;2073034;28;20735;-61
2022/01/25 06:26:44;;;;;;;17.40;9.50;;;;;;;-3.76;88.08;97955.28;2073764;28;20576;-61
2022/01/25 06:27:46;;;;;;;21.73;10.00;;;;;;;-3.81;87.90;97951.81;2072039;28;20194;-61
2022/01/25 06:28:47;;;;;;;34.15;16.92;;;;;;;-3.79;88.04;97945.84;2073012;28;20203;-65
2022/01/25 06:29:50;;;;;;;49.13;24.80;;;;;;;-3.67;87.84;97959.63;2072261;28;20229;-63
2022/01/25 06:30:51;;;;;;;29.92;14.90;;;;;;;-4.17;88.06;97890.03;2078599;28;20214;-63